sensor_id;sensor_type;location;lat;lon;timestamp;P1;durP1;ratioP1;P2;durP2;ratioP2
24163;SDS011;12319;49.204;8.116;2022-07-29T00:00:39;0.90;;;0.60;;
24163;SDS011;12319;49.204;8.116;2022-07-29T00:03:04;1.38;;;0.80;;
24163;SDS011;12319;49.204;8.116;2022-07-29T00:05:30;0.98;;;0.80;;
24163;SDS011;12319;49.204;8.116;2022-07-29T00:07:56;0.88;;;0.73;;
24163;SDS011;12319;49.204;8.116;2022-07-29T00:10:21;0.80;;;0.68;;
24163;SDS011;12319;49.204;8.116;2022-07-29T00:12:47;1.38;;;0.90;;
24163;SDS011;12319;49.204;8.116;2022-07-29T00:15:12;1.92;;;0.95;;
24163;SDS011;12319;49.204;8.116;2022-07-29T00:17:38;1.15;;;0.80;;
24163;SDS011;12319;49.204;8.116;2022-07-29T00:20:04;1.80;;;0.90;;
24163;SDS011;12319;49.204;8.116;2022-07-29T00:22:30;1.77;;;0.75;;
24163;SDS011;12319;49.204;8.116;2022-07-29T00:24:55;0.93;;;0.70;;
24163;SDS011;12319;49.204;8.116;2022-07-29T00:27:21;1.10;;;1.00;;
24163;SDS011;12319;49.204;8.116;2022-07-29T00:29:47;0.85;;;0.60;;
24163;SDS011;12319;49.204;8.116;2022-07-29T00:32:12;0.70;;;0.70;;
24163;SDS011;12319;49.204;8.116;2022-07-29T00:34:38;1.45;;;0.80;;
24163;SDS011;12319;49.204;8.116;2022-07-29T00:37:22;2.03;;;0.88;;
24163;SDS011;12319;49.204;8.116;2022-07-29T00:39:48;0.70;;;0.70;;
24163;SDS011;12319;49.204;8.116;2022-07-29T00:42:13;0.70;;;0.60;;
24163;SDS011;12319;49.204;8.116;2022-07-29T00:44:40;1.67;;;0.80;;
24163;SDS011;12319;49.204;8.116;2022-07-29T00:47:06;1.10;;;0.85;;
24163;SDS011;12319;49.204;8.116;2022-07-29T00:49:33;0.93;;;0.70;;
24163;SDS011;12319;49.204;8.116;2022-07-29T00:52:06;0.73;;;0.73;;
24163;SDS011;12319;49.204;8.116;2022-07-29T00:54:32;2.83;;;0.95;;
24163;SDS011;12319;49.204;8.116;2022-07-29T00:56:59;1.42;;;0.85;;
24163;SDS011;12319;49.204;8.116;2022-07-29T00:59:25;1.73;;;0.90;;
24163;SDS011;12319;49.204;8.116;2022-07-29T01:01:52;2.03;;;1.05;;
24163;SDS011;12319;49.204;8.116;2022-07-29T01:04:18;1.67;;;0.80;;
24163;SDS011;12319;49.204;8.116;2022-07-29T01:06:45;1.17;;;0.90;;
24163;SDS011;12319;49.204;8.116;2022-07-29T01:09:11;0.80;;;0.68;;
24163;SDS011;12319;49.204;8.116;2022-07-29T01:11:37;0.88;;;0.80;;
24163;SDS011;12319;49.204;8.116;2022-07-29T01:14:04;1.25;;;0.90;;
24163;SDS011;12319;49.204;8.116;2022-07-29T01:16:32;1.00;;;0.80;;
24163;SDS011;12319;49.204;8.116;2022-07-29T01:19:20;0.70;;;0.70;;
24163;SDS011;12319;49.204;8.116;2022-07-29T01:22:24;0.98;;;0.82;;
24163;SDS011;12319;49.204;8.116;2022-07-29T01:24:59;2.05;;;0.77;;
24163;SDS011;12319;49.204;8.116;2022-07-29T01:30:20;1.85;;;0.80;;
24163;SDS011;12319;49.204;8.116;2022-07-29T01:32:50;0.60;;;0.60;;
24163;SDS011;12319;49.204;8.116;2022-07-29T01:35:21;1.75;;;0.80;;
24163;SDS011;12319;49.204;8.116;2022-07-29T01:38:10;0.70;;;0.65;;
24163;SDS011;12319;49.204;8.116;2022-07-29T01:40:43;1.13;;;0.75;;
24163;SDS011;12319;49.204;8.116;2022-07-29T01:43:14;0.85;;;0.80;;
24163;SDS011;12319;49.204;8.116;2022-07-29T01:45:44;0.60;;;0.60;;
24163;SDS011;12319;49.204;8.116;2022-07-29T01:48:16;1.45;;;0.85;;
24163;SDS011;12319;49.204;8.116;2022-07-29T01:50:48;1.30;;;0.90;;
24163;SDS011;12319;49.204;8.116;2022-07-29T01:53:21;1.73;;;1.10;;
24163;SDS011;12319;49.204;8.116;2022-07-29T01:55:51;1.75;;;0.75;;
24163;SDS011;12319;49.204;8.116;2022-07-29T01:58:19;1.80;;;0.90;;
24163;SDS011;12319;49.204;8.116;2022-07-29T02:00:46;0.70;;;0.70;;
24163;SDS011;12319;49.204;8.116;2022-07-29T02:03:13;1.58;;;0.73;;
24163;SDS011;12319;49.204;8.116;2022-07-29T02:05:42;1.52;;;1.00;;
24163;SDS011;12319;49.204;8.116;2022-07-29T02:08:10;1.33;;;0.98;;
24163;SDS011;12319;49.204;8.116;2022-07-29T02:10:36;1.13;;;0.80;;
24163;SDS011;12319;49.204;8.116;2022-07-29T02:13:04;2.75;;;0.80;;
24163;SDS011;12319;49.204;8.116;2022-07-29T02:15:32;1.27;;;0.98;;
24163;SDS011;12319;49.204;8.116;2022-07-29T02:18:03;0.95;;;0.75;;
24163;SDS011;12319;49.204;8.116;2022-07-29T02:20:32;1.05;;;0.70;;
24163;SDS011;12319;49.204;8.116;2022-07-29T02:22:59;1.20;;;0.90;;
24163;SDS011;12319;49.204;8.116;2022-07-29T02:25:26;1.30;;;0.90;;
24163;SDS011;12319;49.204;8.116;2022-07-29T02:27:52;1.10;;;0.90;;
24163;SDS011;12319;49.204;8.116;2022-07-29T02:30:20;1.58;;;1.00;;
24163;SDS011;12319;49.204;8.116;2022-07-29T02:32:48;1.60;;;0.95;;
24163;SDS011;12319;49.204;8.116;2022-07-29T02:35:16;1.55;;;0.80;;
24163;SDS011;12319;49.204;8.116;2022-07-29T02:37:43;0.80;;;0.80;;
24163;SDS011;12319;49.204;8.116;2022-07-29T02:40:30;0.90;;;0.85;;
24163;SDS011;12319;49.204;8.116;2022-07-29T02:42:57;0.90;;;0.90;;
24163;SDS011;12319;49.204;8.116;2022-07-29T02:45:23;2.10;;;0.93;;
24163;SDS011;12319;49.204;8.116;2022-07-29T02:47:49;1.20;;;1.00;;
24163;SDS011;12319;49.204;8.116;2022-07-29T02:50:29;1.00;;;0.80;;
24163;SDS011;12319;49.204;8.116;2022-07-29T02:55:34;1.10;;;0.73;;
24163;SDS011;12319;49.204;8.116;2022-07-29T02:58:12;0.77;;;0.73;;
24163;SDS011;12319;49.204;8.116;2022-07-29T03:00:56;1.33;;;0.80;;
24163;SDS011;12319;49.204;8.116;2022-07-29T03:03:31;1.13;;;1.00;;
24163;SDS011;12319;49.204;8.116;2022-07-29T03:06:01;1.35;;;1.00;;
24163;SDS011;12319;49.204;8.116;2022-07-29T03:08:28;1.67;;;1.05;;
24163;SDS011;12319;49.204;8.116;2022-07-29T03:10:56;1.10;;;0.88;;
24163;SDS011;12319;49.204;8.116;2022-07-29T03:13:22;1.58;;;0.90;;
24163;SDS011;12319;49.204;8.116;2022-07-29T03:15:48;0.88;;;0.80;;
24163;SDS011;12319;49.204;8.116;2022-07-29T03:18:14;1.23;;;0.90;;
24163;SDS011;12319;49.204;8.116;2022-07-29T03:20:40;0.85;;;0.80;;
24163;SDS011;12319;49.204;8.116;2022-07-29T03:23:07;0.95;;;0.70;;
24163;SDS011;12319;49.204;8.116;2022-07-29T03:25:33;1.02;;;0.90;;
24163;SDS011;12319;49.204;8.116;2022-07-29T03:27:59;1.13;;;0.88;;
24163;SDS011;12319;49.204;8.116;2022-07-29T03:30:25;1.48;;;0.77;;
24163;SDS011;12319;49.204;8.116;2022-07-29T03:32:51;2.15;;;0.80;;
24163;SDS011;12319;49.204;8.116;2022-07-29T03:35:17;1.35;;;1.00;;
24163;SDS011;12319;49.204;8.116;2022-07-29T03:37:44;1.08;;;0.80;;
24163;SDS011;12319;49.204;8.116;2022-07-29T03:40:10;1.00;;;0.80;;
24163;SDS011;12319;49.204;8.116;2022-07-29T03:42:42;2.15;;;0.88;;
24163;SDS011;12319;49.204;8.116;2022-07-29T03:45:10;1.58;;;0.75;;
24163;SDS011;12319;49.204;8.116;2022-07-29T03:47:39;0.93;;;0.80;;
24163;SDS011;12319;49.204;8.116;2022-07-29T03:50:10;1.58;;;0.98;;
24163;SDS011;12319;49.204;8.116;2022-07-29T03:52:38;1.02;;;0.75;;
24163;SDS011;12319;49.204;8.116;2022-07-29T03:55:04;0.90;;;0.70;;
24163;SDS011;12319;49.204;8.116;2022-07-29T03:57:30;1.50;;;0.80;;
24163;SDS011;12319;49.204;8.116;2022-07-29T03:59:56;1.05;;;0.77;;
24163;SDS011;12319;49.204;8.116;2022-07-29T04:02:23;0.85;;;0.73;;
24163;SDS011;12319;49.204;8.116;2022-07-29T04:04:50;1.83;;;0.88;;
24163;SDS011;12319;49.204;8.116;2022-07-29T04:07:16;1.33;;;0.80;;
24163;SDS011;12319;49.204;8.116;2022-07-29T04:09:42;1.67;;;1.10;;
24163;SDS011;12319;49.204;8.116;2022-07-29T04:12:07;1.35;;;0.80;;
24163;SDS011;12319;49.204;8.116;2022-07-29T04:14:34;1.52;;;0.90;;
24163;SDS011;12319;49.204;8.116;2022-07-29T04:17:00;1.83;;;0.80;;
24163;SDS011;12319;49.204;8.116;2022-07-29T04:19:26;1.52;;;0.90;;
24163;SDS011;12319;49.204;8.116;2022-07-29T04:21:51;1.17;;;0.95;;
24163;SDS011;12319;49.204;8.116;2022-07-29T04:24:17;1.17;;;0.90;;
24163;SDS011;12319;49.204;8.116;2022-07-29T04:26:43;1.65;;;0.77;;
24163;SDS011;12319;49.204;8.116;2022-07-29T04:29:10;0.88;;;0.88;;
24163;SDS011;12319;49.204;8.116;2022-07-29T04:31:36;1.23;;;0.90;;
24163;SDS011;12319;49.204;8.116;2022-07-29T04:34:02;1.42;;;1.15;;
24163;SDS011;12319;49.204;8.116;2022-07-29T04:36:28;1.30;;;1.10;;
24163;SDS011;12319;49.204;8.116;2022-07-29T04:38:53;2.05;;;1.25;;
24163;SDS011;12319;49.204;8.116;2022-07-29T04:41:19;1.20;;;0.90;;
24163;SDS011;12319;49.204;8.116;2022-07-29T04:43:45;1.08;;;0.98;;
24163;SDS011;12319;49.204;8.116;2022-07-29T04:46:11;1.77;;;1.40;;
24163;SDS011;12319;49.204;8.116;2022-07-29T04:48:36;1.30;;;1.20;;
24163;SDS011;12319;49.204;8.116;2022-07-29T04:51:02;1.13;;;1.00;;
24163;SDS011;12319;49.204;8.116;2022-07-29T04:53:27;1.10;;;1.00;;
24163;SDS011;12319;49.204;8.116;2022-07-29T04:55:53;1.63;;;0.88;;
24163;SDS011;12319;49.204;8.116;2022-07-29T04:58:19;1.40;;;0.93;;
24163;SDS011;12319;49.204;8.116;2022-07-29T05:00:44;0.90;;;0.80;;
24163;SDS011;12319;49.204;8.116;2022-07-29T05:03:10;1.02;;;0.93;;
24163;SDS011;12319;49.204;8.116;2022-07-29T05:05:35;0.80;;;0.80;;
24163;SDS011;12319;49.204;8.116;2022-07-29T05:08:01;1.02;;;0.82;;
24163;SDS011;12319;49.204;8.116;2022-07-29T05:10:27;1.90;;;1.10;;
24163;SDS011;12319;49.204;8.116;2022-07-29T05:12:53;1.42;;;1.00;;
24163;SDS011;12319;49.204;8.116;2022-07-29T05:15:19;2.35;;;1.10;;
24163;SDS011;12319;49.204;8.116;2022-07-29T05:17:45;1.13;;;1.02;;
24163;SDS011;12319;49.204;8.116;2022-07-29T05:20:10;1.38;;;1.00;;
24163;SDS011;12319;49.204;8.116;2022-07-29T05:22:36;1.50;;;0.90;;
24163;SDS011;12319;49.204;8.116;2022-07-29T05:25:01;3.08;;;1.42;;
24163;SDS011;12319;49.204;8.116;2022-07-29T05:27:27;2.15;;;1.00;;
24163;SDS011;12319;49.204;8.116;2022-07-29T05:29:53;1.25;;;0.90;;
24163;SDS011;12319;49.204;8.116;2022-07-29T05:32:19;2.22;;;1.08;;
24163;SDS011;12319;49.204;8.116;2022-07-29T05:34:45;4.22;;;1.20;;
24163;SDS011;12319;49.204;8.116;2022-07-29T05:37:10;2.38;;;1.45;;
24163;SDS011;12319;49.204;8.116;2022-07-29T05:39:38;0.98;;;0.98;;
24163;SDS011;12319;49.204;8.116;2022-07-29T05:42:07;2.55;;;0.88;;
24163;SDS011;12319;49.204;8.116;2022-07-29T05:44:37;2.05;;;0.95;;
24163;SDS011;12319;49.204;8.116;2022-07-29T05:47:03;1.38;;;0.93;;
24163;SDS011;12319;49.204;8.116;2022-07-29T05:49:29;4.05;;;1.10;;
24163;SDS011;12319;49.204;8.116;2022-07-29T05:51:54;2.20;;;1.02;;
24163;SDS011;12319;49.204;8.116;2022-07-29T05:54:20;1.27;;;0.93;;
24163;SDS011;12319;49.204;8.116;2022-07-29T05:56:45;1.23;;;0.85;;
24163;SDS011;12319;49.204;8.116;2022-07-29T05:59:11;2.35;;;1.02;;
24163;SDS011;12319;49.204;8.116;2022-07-29T06:01:37;1.92;;;0.73;;
24163;SDS011;12319;49.204;8.116;2022-07-29T06:04:07;1.73;;;1.15;;
24163;SDS011;12319;49.204;8.116;2022-07-29T06:06:33;1.13;;;1.02;;
24163;SDS011;12319;49.204;8.116;2022-07-29T06:09:02;1.33;;;0.90;;
24163;SDS011;12319;49.204;8.116;2022-07-29T06:11:28;4.93;;;1.10;;
24163;SDS011;12319;49.204;8.116;2022-07-29T06:13:53;1.17;;;1.08;;
24163;SDS011;12319;49.204;8.116;2022-07-29T06:16:19;1.30;;;0.98;;
24163;SDS011;12319;49.204;8.116;2022-07-29T06:18:45;4.53;;;1.08;;
24163;SDS011;12319;49.204;8.116;2022-07-29T06:21:11;1.20;;;0.90;;
24163;SDS011;12319;49.204;8.116;2022-07-29T06:23:37;1.90;;;1.10;;
24163;SDS011;12319;49.204;8.116;2022-07-29T06:26:03;1.70;;;1.00;;
24163;SDS011;12319;49.204;8.116;2022-07-29T06:28:30;3.60;;;1.13;;
24163;SDS011;12319;49.204;8.116;2022-07-29T06:30:56;1.27;;;1.17;;
24163;SDS011;12319;49.204;8.116;2022-07-29T06:33:21;3.13;;;0.98;;
24163;SDS011;12319;49.204;8.116;2022-07-29T06:35:47;1.17;;;1.00;;
24163;SDS011;12319;49.204;8.116;2022-07-29T06:38:14;2.92;;;1.10;;
24163;SDS011;12319;49.204;8.116;2022-07-29T06:40:43;1.50;;;0.98;;
24163;SDS011;12319;49.204;8.116;2022-07-29T06:43:29;1.85;;;1.17;;
24163;SDS011;12319;49.204;8.116;2022-07-29T06:46:00;5.03;;;1.38;;
24163;SDS011;12319;49.204;8.116;2022-07-29T06:48:27;1.35;;;0.80;;
24163;SDS011;12319;49.204;8.116;2022-07-29T06:50:54;1.60;;;0.90;;
24163;SDS011;12319;49.204;8.116;2022-07-29T06:53:19;2.28;;;1.10;;
24163;SDS011;12319;49.204;8.116;2022-07-29T06:55:45;2.17;;;0.90;;
24163;SDS011;12319;49.204;8.116;2022-07-29T06:58:10;1.35;;;1.08;;
24163;SDS011;12319;49.204;8.116;2022-07-29T07:00:36;0.93;;;0.82;;
24163;SDS011;12319;49.204;8.116;2022-07-29T07:03:02;2.13;;;1.08;;
24163;SDS011;12319;49.204;8.116;2022-07-29T07:05:28;2.00;;;1.27;;
24163;SDS011;12319;49.204;8.116;2022-07-29T07:07:53;4.40;;;1.10;;
24163;SDS011;12319;49.204;8.116;2022-07-29T07:10:19;1.20;;;1.10;;
24163;SDS011;12319;49.204;8.116;2022-07-29T07:12:44;2.78;;;1.20;;
24163;SDS011;12319;49.204;8.116;2022-07-29T07:15:10;1.20;;;1.08;;
24163;SDS011;12319;49.204;8.116;2022-07-29T07:17:35;1.73;;;1.00;;
24163;SDS011;12319;49.204;8.116;2022-07-29T07:20:02;1.65;;;1.10;;
24163;SDS011;12319;49.204;8.116;2022-07-29T07:22:29;1.67;;;1.20;;
24163;SDS011;12319;49.204;8.116;2022-07-29T07:24:55;1.40;;;1.30;;
24163;SDS011;12319;49.204;8.116;2022-07-29T07:27:21;2.17;;;1.20;;
24163;SDS011;12319;49.204;8.116;2022-07-29T07:29:46;1.10;;;1.00;;
24163;SDS011;12319;49.204;8.116;2022-07-29T07:32:12;2.33;;;1.10;;
24163;SDS011;12319;49.204;8.116;2022-07-29T07:34:38;1.35;;;1.20;;
24163;SDS011;12319;49.204;8.116;2022-07-29T07:37:04;2.47;;;1.33;;
24163;SDS011;12319;49.204;8.116;2022-07-29T07:39:30;2.17;;;1.30;;
24163;SDS011;12319;49.204;8.116;2022-07-29T07:41:55;1.30;;;1.20;;
24163;SDS011;12319;49.204;8.116;2022-07-29T07:44:21;1.70;;;1.48;;
24163;SDS011;12319;49.204;8.116;2022-07-29T07:46:46;1.60;;;1.50;;
24163;SDS011;12319;49.204;8.116;2022-07-29T07:49:12;2.28;;;1.80;;
24163;SDS011;12319;49.204;8.116;2022-07-29T07:51:37;2.78;;;1.75;;
24163;SDS011;12319;49.204;8.116;2022-07-29T07:54:03;1.60;;;1.50;;
24163;SDS011;12319;49.204;8.116;2022-07-29T07:56:29;1.60;;;1.50;;
24163;SDS011;12319;49.204;8.116;2022-07-29T07:58:54;1.48;;;1.38;;
24163;SDS011;12319;49.204;8.116;2022-07-29T08:01:20;2.15;;;1.27;;
24163;SDS011;12319;49.204;8.116;2022-07-29T08:03:47;1.80;;;1.70;;
24163;SDS011;12319;49.204;8.116;2022-07-29T08:06:14;2.10;;;1.55;;
24163;SDS011;12319;49.204;8.116;2022-07-29T08:08:39;2.15;;;1.70;;
24163;SDS011;12319;49.204;8.116;2022-07-29T08:11:05;1.95;;;1.85;;
24163;SDS011;12319;49.204;8.116;2022-07-29T08:13:31;3.03;;;1.60;;
24163;SDS011;12319;49.204;8.116;2022-07-29T08:15:57;1.75;;;1.65;;
24163;SDS011;12319;49.204;8.116;2022-07-29T08:18:36;2.72;;;1.88;;
24163;SDS011;12319;49.204;8.116;2022-07-29T08:21:02;1.23;;;1.20;;
24163;SDS011;12319;49.204;8.116;2022-07-29T08:23:28;1.33;;;1.23;;
24163;SDS011;12319;49.204;8.116;2022-07-29T08:26:03;1.48;;;1.15;;
24163;SDS011;12319;49.204;8.116;2022-07-29T08:28:30;1.58;;;1.27;;
24163;SDS011;12319;49.204;8.116;2022-07-29T08:30:55;1.50;;;1.08;;
24163;SDS011;12319;49.204;8.116;2022-07-29T08:33:21;1.63;;;1.10;;
24163;SDS011;12319;49.204;8.116;2022-07-29T08:35:47;1.00;;;0.90;;
24163;SDS011;12319;49.204;8.116;2022-07-29T08:38:12;2.50;;;1.10;;
24163;SDS011;12319;49.204;8.116;2022-07-29T08:40:38;1.83;;;0.90;;
24163;SDS011;12319;49.204;8.116;2022-07-29T08:43:05;1.15;;;1.00;;
24163;SDS011;12319;49.204;8.116;2022-07-29T08:45:34;0.95;;;0.90;;
24163;SDS011;12319;49.204;8.116;2022-07-29T08:48:07;1.20;;;1.10;;
24163;SDS011;12319;49.204;8.116;2022-07-29T08:50:34;1.00;;;1.00;;
24163;SDS011;12319;49.204;8.116;2022-07-29T08:53:01;1.52;;;1.05;;
24163;SDS011;12319;49.204;8.116;2022-07-29T08:55:27;1.35;;;0.95;;
24163;SDS011;12319;49.204;8.116;2022-07-29T08:57:53;1.20;;;1.00;;
24163;SDS011;12319;49.204;8.116;2022-07-29T09:00:19;0.80;;;0.80;;
24163;SDS011;12319;49.204;8.116;2022-07-29T09:02:47;1.38;;;0.93;;
24163;SDS011;12319;49.204;8.116;2022-07-29T09:05:20;0.90;;;0.90;;
24163;SDS011;12319;49.204;8.116;2022-07-29T09:07:48;1.85;;;1.10;;
24163;SDS011;12319;49.204;8.116;2022-07-29T09:10:15;0.98;;;0.95;;
24163;SDS011;12319;49.204;8.116;2022-07-29T09:12:40;0.80;;;0.80;;
24163;SDS011;12319;49.204;8.116;2022-07-29T09:15:06;1.10;;;1.00;;
24163;SDS011;12319;49.204;8.116;2022-07-29T09:17:42;2.28;;;0.95;;
24163;SDS011;12319;49.204;8.116;2022-07-29T09:20:12;1.27;;;1.10;;
24163;SDS011;12319;49.204;8.116;2022-07-29T09:22:40;1.20;;;1.10;;
24163;SDS011;12319;49.204;8.116;2022-07-29T09:25:06;1.08;;;0.98;;
24163;SDS011;12319;49.204;8.116;2022-07-29T09:27:32;1.15;;;1.05;;
24163;SDS011;12319;49.204;8.116;2022-07-29T09:29:59;2.40;;;1.20;;
24163;SDS011;12319;49.204;8.116;2022-07-29T09:32:28;1.30;;;1.15;;
24163;SDS011;12319;49.204;8.116;2022-07-29T09:37:46;1.83;;;1.25;;
24163;SDS011;12319;49.204;8.116;2022-07-29T09:40:15;3.33;;;1.30;;
24163;SDS011;12319;49.204;8.116;2022-07-29T09:42:43;1.13;;;1.02;;
24163;SDS011;12319;49.204;8.116;2022-07-29T09:45:11;1.90;;;1.00;;
24163;SDS011;12319;49.204;8.116;2022-07-29T09:47:42;0.98;;;0.85;;
24163;SDS011;12319;49.204;8.116;2022-07-29T09:50:09;1.13;;;1.08;;
24163;SDS011;12319;49.204;8.116;2022-07-29T09:52:44;2.25;;;0.77;;
24163;SDS011;12319;49.204;8.116;2022-07-29T09:55:11;1.35;;;0.80;;
24163;SDS011;12319;49.204;8.116;2022-07-29T09:57:37;2.60;;;1.20;;
24163;SDS011;12319;49.204;8.116;2022-07-29T10:00:21;1.70;;;1.20;;
24163;SDS011;12319;49.204;8.116;2022-07-29T10:02:47;1.65;;;1.13;;
24163;SDS011;12319;49.204;8.116;2022-07-29T10:05:17;1.50;;;1.13;;
24163;SDS011;12319;49.204;8.116;2022-07-29T10:07:46;1.33;;;1.00;;
24163;SDS011;12319;49.204;8.116;2022-07-29T10:10:20;2.00;;;1.20;;
24163;SDS011;12319;49.204;8.116;2022-07-29T10:12:58;1.27;;;1.10;;
24163;SDS011;12319;49.204;8.116;2022-07-29T10:15:27;1.45;;;1.08;;
24163;SDS011;12319;49.204;8.116;2022-07-29T10:17:56;1.08;;;0.93;;
24163;SDS011;12319;49.204;8.116;2022-07-29T10:20:23;3.22;;;1.10;;
24163;SDS011;12319;49.204;8.116;2022-07-29T10:22:50;1.10;;;1.00;;
24163;SDS011;12319;49.204;8.116;2022-07-29T10:25:16;1.00;;;0.90;;
24163;SDS011;12319;49.204;8.116;2022-07-29T10:27:45;2.78;;;1.20;;
24163;SDS011;12319;49.204;8.116;2022-07-29T10:30:13;3.45;;;1.25;;
24163;SDS011;12319;49.204;8.116;2022-07-29T10:38:34;2.05;;;1.10;;
24163;SDS011;12319;49.204;8.116;2022-07-29T10:41:21;1.20;;;1.10;;
24163;SDS011;12319;49.204;8.116;2022-07-29T10:44:28;1.35;;;0.90;;
24163;SDS011;12319;49.204;8.116;2022-07-29T10:46:54;1.23;;;1.08;;
24163;SDS011;12319;49.204;8.116;2022-07-29T10:49:24;3.00;;;1.00;;
24163;SDS011;12319;49.204;8.116;2022-07-29T10:51:59;1.52;;;1.42;;
24163;SDS011;12319;49.204;8.116;2022-07-29T10:59:41;1.05;;;0.90;;
24163;SDS011;12319;49.204;8.116;2022-07-29T11:05:04;2.85;;;1.00;;
24163;SDS011;12319;49.204;8.116;2022-07-29T11:07:34;1.30;;;1.20;;
24163;SDS011;12319;49.204;8.116;2022-07-29T11:10:23;1.13;;;1.02;;
24163;SDS011;12319;49.204;8.116;2022-07-29T11:12:48;1.20;;;1.10;;
24163;SDS011;12319;49.204;8.116;2022-07-29T11:15:16;1.08;;;0.95;;
24163;SDS011;12319;49.204;8.116;2022-07-29T11:23:01;1.15;;;1.05;;
24163;SDS011;12319;49.204;8.116;2022-07-29T11:25:41;1.20;;;1.05;;
24163;SDS011;12319;49.204;8.116;2022-07-29T11:28:12;0.82;;;0.82;;
24163;SDS011;12319;49.204;8.116;2022-07-29T11:30:48;1.20;;;1.10;;
24163;SDS011;12319;49.204;8.116;2022-07-29T11:33:30;2.80;;;1.15;;
24163;SDS011;12319;49.204;8.116;2022-07-29T11:36:09;0.95;;;0.93;;
24163;SDS011;12319;49.204;8.116;2022-07-29T11:38:36;0.75;;;0.75;;
24163;SDS011;12319;49.204;8.116;2022-07-29T11:43:46;1.10;;;1.00;;
24163;SDS011;12319;49.204;8.116;2022-07-29T11:46:11;2.50;;;0.80;;
24163;SDS011;12319;49.204;8.116;2022-07-29T11:48:40;1.08;;;0.98;;
24163;SDS011;12319;49.204;8.116;2022-07-29T11:51:10;1.58;;;0.70;;
24163;SDS011;12319;49.204;8.116;2022-07-29T11:53:37;1.10;;;1.00;;
24163;SDS011;12319;49.204;8.116;2022-07-29T11:56:04;1.48;;;0.98;;
24163;SDS011;12319;49.204;8.116;2022-07-29T11:58:33;0.90;;;0.90;;
24163;SDS011;12319;49.204;8.116;2022-07-29T12:01:00;0.90;;;0.90;;
24163;SDS011;12319;49.204;8.116;2022-07-29T12:03:26;1.95;;;1.10;;
24163;SDS011;12319;49.204;8.116;2022-07-29T12:05:53;1.30;;;1.20;;
24163;SDS011;12319;49.204;8.116;2022-07-29T12:08:20;1.58;;;1.00;;
24163;SDS011;12319;49.204;8.116;2022-07-29T12:10:48;3.35;;;1.15;;
24163;SDS011;12319;49.204;8.116;2022-07-29T12:13:15;1.23;;;1.05;;
24163;SDS011;12319;49.204;8.116;2022-07-29T12:15:42;1.35;;;1.00;;
24163;SDS011;12319;49.204;8.116;2022-07-29T12:18:17;3.45;;;1.02;;
24163;SDS011;12319;49.204;8.116;2022-07-29T12:20:45;0.77;;;0.77;;
24163;SDS011;12319;49.204;8.116;2022-07-29T12:23:12;0.90;;;0.90;;
24163;SDS011;12319;49.204;8.116;2022-07-29T12:25:39;1.67;;;1.10;;
24163;SDS011;12319;49.204;8.116;2022-07-29T12:28:06;1.20;;;0.88;;
24163;SDS011;12319;49.204;8.116;2022-07-29T12:30:35;1.10;;;0.90;;
24163;SDS011;12319;49.204;8.116;2022-07-29T12:33:23;1.48;;;1.05;;
24163;SDS011;12319;49.204;8.116;2022-07-29T12:35:57;1.17;;;0.90;;
24163;SDS011;12319;49.204;8.116;2022-07-29T12:38:24;1.00;;;0.90;;
24163;SDS011;12319;49.204;8.116;2022-07-29T12:40:51;0.70;;;0.70;;
24163;SDS011;12319;49.204;8.116;2022-07-29T12:43:19;2.80;;;1.10;;
24163;SDS011;12319;49.204;8.116;2022-07-29T12:45:46;1.05;;;0.93;;
24163;SDS011;12319;49.204;8.116;2022-07-29T12:48:15;1.52;;;0.80;;
24163;SDS011;12319;49.204;8.116;2022-07-29T12:50:57;1.17;;;0.80;;
24163;SDS011;12319;49.204;8.116;2022-07-29T12:53:24;0.90;;;0.90;;
24163;SDS011;12319;49.204;8.116;2022-07-29T12:55:50;1.13;;;1.02;;
24163;SDS011;12319;49.204;8.116;2022-07-29T12:58:33;1.52;;;0.80;;
24163;SDS011;12319;49.204;8.116;2022-07-29T13:01:10;0.68;;;0.68;;
24163;SDS011;12319;49.204;8.116;2022-07-29T13:03:46;1.17;;;1.00;;
24163;SDS011;12319;49.204;8.116;2022-07-29T13:09:04;0.85;;;0.70;;
24163;SDS011;12319;49.204;8.116;2022-07-29T13:11:35;0.95;;;0.77;;
24163;SDS011;12319;49.204;8.116;2022-07-29T13:14:11;1.02;;;0.93;;
24163;SDS011;12319;49.204;8.116;2022-07-29T13:17:00;1.48;;;0.70;;
24163;SDS011;12319;49.204;8.116;2022-07-29T13:20:04;1.10;;;0.90;;
24163;SDS011;12319;49.204;8.116;2022-07-29T13:22:29;0.85;;;0.68;;
24163;SDS011;12319;49.204;8.116;2022-07-29T13:24:59;2.65;;;0.90;;
24163;SDS011;12319;49.204;8.116;2022-07-29T13:27:29;1.35;;;0.70;;
24163;SDS011;12319;49.204;8.116;2022-07-29T13:29:59;1.27;;;0.80;;
24163;SDS011;12319;49.204;8.116;2022-07-29T13:32:28;0.77;;;0.70;;
24163;SDS011;12319;49.204;8.116;2022-07-29T13:34:59;0.70;;;0.70;;
24163;SDS011;12319;49.204;8.116;2022-07-29T13:37:26;0.68;;;0.68;;
24163;SDS011;12319;49.204;8.116;2022-07-29T13:39:54;1.52;;;1.00;;
24163;SDS011;12319;49.204;8.116;2022-07-29T13:42:21;1.17;;;1.00;;
24163;SDS011;12319;49.204;8.116;2022-07-29T13:44:47;0.98;;;0.90;;
24163;SDS011;12319;49.204;8.116;2022-07-29T13:47:15;0.70;;;0.70;;
24163;SDS011;12319;49.204;8.116;2022-07-29T13:49:41;0.60;;;0.60;;
24163;SDS011;12319;49.204;8.116;2022-07-29T13:52:06;1.02;;;0.93;;
24163;SDS011;12319;49.204;8.116;2022-07-29T13:54:32;0.63;;;0.63;;
24163;SDS011;12319;49.204;8.116;2022-07-29T13:56:58;1.13;;;1.00;;
24163;SDS011;12319;49.204;8.116;2022-07-29T13:59:23;0.75;;;0.70;;
24163;SDS011;12319;49.204;8.116;2022-07-29T14:01:49;1.10;;;1.00;;
24163;SDS011;12319;49.204;8.116;2022-07-29T14:04:14;1.60;;;0.70;;
24163;SDS011;12319;49.204;8.116;2022-07-29T14:06:40;0.95;;;0.82;;
24163;SDS011;12319;49.204;8.116;2022-07-29T14:09:05;0.77;;;0.75;;
24163;SDS011;12319;49.204;8.116;2022-07-29T14:11:33;1.30;;;0.90;;
24163;SDS011;12319;49.204;8.116;2022-07-29T14:13:59;1.33;;;0.60;;
24163;SDS011;12319;49.204;8.116;2022-07-29T14:16:24;0.73;;;0.73;;
24163;SDS011;12319;49.204;8.116;2022-07-29T14:18:50;4.10;;;0.90;;
24163;SDS011;12319;49.204;8.116;2022-07-29T14:21:16;1.00;;;0.70;;
24163;SDS011;12319;49.204;8.116;2022-07-29T14:23:42;0.95;;;0.80;;
24163;SDS011;12319;49.204;8.116;2022-07-29T14:26:07;1.15;;;0.90;;
24163;SDS011;12319;49.204;8.116;2022-07-29T14:28:34;1.15;;;0.70;;
24163;SDS011;12319;49.204;8.116;2022-07-29T14:30:59;1.95;;;0.80;;
24163;SDS011;12319;49.204;8.116;2022-07-29T14:33:25;0.70;;;0.52;;
24163;SDS011;12319;49.204;8.116;2022-07-29T14:35:50;2.35;;;0.80;;
24163;SDS011;12319;49.204;8.116;2022-07-29T14:38:16;0.93;;;0.60;;
24163;SDS011;12319;49.204;8.116;2022-07-29T14:40:41;2.70;;;0.70;;
24163;SDS011;12319;49.204;8.116;2022-07-29T14:43:07;1.13;;;0.60;;
24163;SDS011;12319;49.204;8.116;2022-07-29T14:45:33;0.80;;;0.80;;
24163;SDS011;12319;49.204;8.116;2022-07-29T14:47:58;0.73;;;0.70;;
24163;SDS011;12319;49.204;8.116;2022-07-29T14:50:24;0.70;;;0.70;;
24163;SDS011;12319;49.204;8.116;2022-07-29T14:52:51;1.23;;;0.73;;
24163;SDS011;12319;49.204;8.116;2022-07-29T14:55:17;0.70;;;0.70;;
24163;SDS011;12319;49.204;8.116;2022-07-29T14:57:42;0.80;;;0.80;;
24163;SDS011;12319;49.204;8.116;2022-07-29T15:00:08;1.30;;;0.70;;
24163;SDS011;12319;49.204;8.116;2022-07-29T15:02:35;0.77;;;0.70;;
24163;SDS011;12319;49.204;8.116;2022-07-29T15:05:01;0.80;;;0.70;;
24163;SDS011;12319;49.204;8.116;2022-07-29T15:07:27;1.02;;;0.70;;
24163;SDS011;12319;49.204;8.116;2022-07-29T15:09:53;0.80;;;0.75;;
24163;SDS011;12319;49.204;8.116;2022-07-29T15:12:18;1.20;;;0.60;;
24163;SDS011;12319;49.204;8.116;2022-07-29T15:14:44;0.60;;;0.60;;
24163;SDS011;12319;49.204;8.116;2022-07-29T15:17:09;0.85;;;0.80;;
24163;SDS011;12319;49.204;8.116;2022-07-29T15:19:35;2.15;;;0.75;;
24163;SDS011;12319;49.204;8.116;2022-07-29T15:22:00;1.35;;;0.82;;
24163;SDS011;12319;49.204;8.116;2022-07-29T15:24:26;2.55;;;0.80;;
24163;SDS011;12319;49.204;8.116;2022-07-29T15:26:52;0.93;;;0.80;;